Time;durP1;ratioP1;P1;durP2;ratioP2;P2;SDS_P1;SDS_P2;PMS_P1;PMS_P2;Temp;Humidity;BMP_temperature;BMP_pressure;BME280_temperature;BME280_humidity;BME280_pressure;Samples;Min_cycle;Max_cycle;Signal;HPM_P1;HPM_P2
2020/12/07 00:00:16;;;;;;;;;;;1.70;99.90;;;;;;5052177;28;19916;-86
2020/12/07 00:02:41;;;;;;;;;;;1.70;99.90;;;;;;5051283;28;19909;-85
2020/12/07 00:05:07;;;;;;;;;;;1.70;99.90;;;;;;5051561;28;19912;-86
2020/12/07 00:07:33;;;;;;;;;;;1.70;99.90;;;;;;5051283;28;20386;-86
2020/12/07 00:10:01;;;;;;;;;;;1.70;99.90;;;;;;5051745;28;20368;-86
2020/12/07 00:12:28;;;;;;;;;;;1.70;99.90;;;;;;5052962;28;19916;-86
2020/12/07 00:14:53;;;;;;;;;;;1.70;99.90;;;;;;5043293;28;19967;-86
2020/12/07 00:17:20;;;;;;;;;;;1.70;99.90;;;;;;5051630;28;19916;-86
2020/12/07 00:19:45;;;;;;;;;;;1.70;99.90;;;;;;5051773;28;19909;-87
2020/12/07 00:22:10;;;;;;;;;;;1.70;99.90;;;;;;5052802;28;19909;-86
2020/12/07 00:24:36;;;;;;;;;;;1.70;99.90;;;;;;5051722;28;19948;-87
2020/12/07 00:27:01;;;;;;;;;;;1.70;99.90;;;;;;5051259;28;19909;-86
2020/12/07 00:29:27;;;;;;;;;;;1.80;99.90;;;;;;5051572;28;19964;-86
2020/12/07 00:31:52;;;;;;;;;;;1.70;99.90;;;;;;5051377;28;19909;-86
2020/12/07 00:34:18;;;;;;;;;;;1.70;99.90;;;;;;5051500;28;19966;-87
2020/12/07 00:36:44;;;;;;;;;;;1.60;99.90;;;;;;5052558;28;20398;-86
2020/12/07 00:39:09;;;;;;;;;;;1.60;99.90;;;;;;5051347;28;19913;-87
2020/12/07 00:41:35;;;;;;;;;;;1.60;99.90;;;;;;5052522;28;19992;-86
2020/12/07 00:44:00;;;;;;;;;;;1.60;99.90;;;;;;5036610;28;19916;-87
2020/12/07 00:46:26;;;;;;;;;;;1.60;99.90;;;;;;5049412;28;20372;-86
2020/12/07 00:48:53;;;;;;;;;;;1.60;99.90;;;;;;5051328;28;19954;-87
2020/12/07 00:51:19;;;;;;;;;;;1.60;99.90;;;;;;5051468;28;19960;-87
2020/12/07 00:53:44;;;;;;;;;;;1.60;99.90;;;;;;5053966;28;20394;-87
2020/12/07 00:56:13;;;;;;;;;;;1.60;99.90;;;;;;5055201;28;20355;-87
2020/12/07 00:58:39;;;;;;;;;;;1.60;99.90;;;;;;5055313;28;19909;-87
2020/12/07 01:01:04;;;;;;;;;;;1.60;99.90;;;;;;5055315;28;20322;-87
2020/12/07 01:03:29;;;;;;;;;;;1.60;99.90;;;;;;5055262;28;20001;-85
2020/12/07 01:05:55;;;;;;;;;;;1.60;99.90;;;;;;5055262;28;19913;-87
2020/12/07 01:08:21;;;;;;;;;;;1.60;99.90;;;;;;5055280;28;19909;-86
2020/12/07 01:10:53;;;;;;;;;;;1.60;99.90;;;;;;5055151;28;19916;-87
2020/12/07 01:13:18;;;;;;;;;;;1.60;99.90;;;;;;5046819;28;19916;-87
2020/12/07 01:15:44;;;;;;;;;;;1.60;99.90;;;;;;5043631;28;19913;-87
2020/12/07 01:18:09;;;;;;;;;;;1.70;99.90;;;;;;5034911;28;19920;-86
2020/12/07 01:20:34;;;;;;;;;;;1.60;99.90;;;;;;5036327;28;19909;-86
2020/12/07 01:23:00;;;;;;;;;;;1.70;99.90;;;;;;5034874;28;20276;-85
2020/12/07 01:25:26;;;;;;;;;;;1.70;99.90;;;;;;5035070;28;19916;-86
2020/12/07 01:27:51;;;;;;;;;;;1.80;99.90;;;;;;5034835;28;20351;-87
2020/12/07 01:30:16;;;;;;;;;;;1.80;99.90;;;;;;5034711;28;19960;-87
2020/12/07 01:32:42;;;;;;;;;;;1.80;99.90;;;;;;5034860;28;19909;-86
2020/12/07 01:35:07;;;;;;;;;;;1.80;99.90;;;;;;5034671;28;19920;-87
2020/12/07 01:37:33;;;;;;;;;;;1.80;99.90;;;;;;5034612;28;19967;-86
2020/12/07 01:39:58;;;;;;;;;;;1.80;99.90;;;;;;5034625;28;19916;-85
2020/12/07 01:42:24;;;;;;;;;;;1.80;99.90;;;;;;5040070;28;20382;-87
2020/12/07 01:44:49;;;;;;;;;;;1.70;99.90;;;;;;5049659;28;19913;-87
2020/12/07 01:47:22;;;;;;;;;;;1.70;99.90;;;;;;5034485;28;19959;-87
2020/12/07 01:49:49;;;;;;;;;;;1.70;99.90;;;;;;5034614;28;19909;-87
2020/12/07 01:52:14;;;;;;;;;;;1.70;99.90;;;;;;5034462;28;20303;-86
2020/12/07 01:54:40;;;;;;;;;;;1.80;99.90;;;;;;5035563;28;19920;-86
2020/12/07 01:57:05;;;;;;;;;;;1.70;99.90;;;;;;5034242;28;19909;-86
2020/12/07 01:59:31;;;;;;;;;;;1.70;99.90;;;;;;5034299;28;19909;-86
2020/12/07 02:01:56;;;;;;;;;;;1.70;99.90;;;;;;5035514;28;19909;-86
2020/12/07 02:04:21;;;;;;;;;;;1.70;99.90;;;;;;5034182;28;19909;-86
2020/12/07 02:06:47;;;;;;;;;;;1.70;99.90;;;;;;5035288;28;19909;-86
2020/12/07 02:09:12;;;;;;;;;;;1.70;99.90;;;;;;5035222;28;20331;-86
2020/12/07 02:11:38;;;;;;;;;;;1.70;99.90;;;;;;5034104;28;19909;-87
2020/12/07 02:14:03;;;;;;;;;;;1.70;99.90;;;;;;5041993;28;19963;-87
2020/12/07 02:16:29;;;;;;;;;;;1.70;99.90;;;;;;5052383;28;19956;-86
2020/12/07 02:18:58;;;;;;;;;;;1.70;99.90;;;;;;5053803;28;19908;-86
2020/12/07 02:21:23;;;;;;;;;;;1.70;99.90;;;;;;5053257;28;19909;-86
2020/12/07 02:23:49;;;;;;;;;;;1.70;99.90;;;;;;5055024;28;19920;-86
2020/12/07 02:26:14;;;;;;;;;;;1.70;99.90;;;;;;5053615;28;19931;-86
2020/12/07 02:28:40;;;;;;;;;;;1.70;99.90;;;;;;5053615;28;19916;-86
2020/12/07 02:31:05;;;;;;;;;;;1.70;99.90;;;;;;5053575;28;19915;-86
2020/12/07 02:33:31;;;;;;;;;;;1.70;99.90;;;;;;5054865;28;19998;-86
2020/12/07 02:35:56;;;;;;;;;;;1.70;99.90;;;;;;5053271;28;20279;-87
2020/12/07 02:38:21;;;;;;;;;;;1.70;99.90;;;;;;5053548;28;19919;-87
2020/12/07 02:40:47;;;;;;;;;;;1.70;99.90;;;;;;5053598;28;19963;-87
2020/12/07 02:43:12;;;;;;;;;;;1.70;99.90;;;;;;5045224;28;19932;-86
2020/12/07 02:45:38;;;;;;;;;;;1.70;99.90;;;;;;5041618;28;20451;-88
2020/12/07 02:48:03;;;;;;;;;;;1.70;99.90;;;;;;5033278;28;19916;-86
2020/12/07 02:50:29;;;;;;;;;;;1.70;99.90;;;;;;5033415;28;19913;-86
2020/12/07 02:52:54;;;;;;;;;;;1.70;99.90;;;;;;5033350;28;19909;-87
2020/12/07 02:55:20;;;;;;;;;;;1.70;99.90;;;;;;5033299;28;19928;-86
2020/12/07 02:57:45;;;;;;;;;;;1.70;99.90;;;;;;5033303;28;20280;-87
2020/12/07 03:00:10;;;;;;;;;;;1.70;99.90;;;;;;5033147;28;19909;-86
2020/12/07 03:02:36;;;;;;;;;;;1.70;99.90;;;;;;5033418;28;19955;-87
2020/12/07 03:05:05;;;;;;;;;;;1.70;99.90;;;;;;5033177;28;19908;-87
2020/12/07 03:07:30;;;;;;;;;;;1.70;99.90;;;;;;5032926;28;19910;-86
2020/12/07 03:09:56;;;;;;;;;;;1.70;99.90;;;;;;5034320;28;20047;-87
2020/12/07 03:12:21;;;;;;;;;;;1.70;99.90;;;;;;5034084;28;19974;-87
2020/12/07 03:14:47;;;;;;;;;;;1.70;99.90;;;;;;5048134;28;19920;-87
2020/12/07 03:17:12;;;;;;;;;;;1.70;99.90;;;;;;5033669;28;19909;-87
2020/12/07 03:19:38;;;;;;;;;;;1.70;99.90;;;;;;5034100;28;20377;-87
2020/12/07 03:22:03;;;;;;;;;;;1.70;99.90;;;;;;5032780;28;20008;-87
2020/12/07 03:24:29;;;;;;;;;;;1.70;99.90;;;;;;5032880;28;19967;-87
2020/12/07 03:26:54;;;;;;;;;;;1.70;99.90;;;;;;5032689;28;19963;-87
2020/12/07 03:29:20;;;;;;;;;;;1.70;99.90;;;;;;5032674;28;19917;-87
2020/12/07 03:31:45;;;;;;;;;;;1.70;99.90;;;;;;5032567;28;19913;-87
2020/12/07 03:34:11;;;;;;;;;;;1.80;99.90;;;;;;5032496;28;19960;-87
2020/12/07 03:36:36;;;;;;;;;;;1.80;99.90;;;;;;5032419;28;19915;-86
2020/12/07 03:39:03;;;;;;;;;;;1.80;99.90;;;;;;5032510;28;19910;-87
2020/12/07 03:41:28;;;;;;;;;;;1.80;99.90;;;;;;5032269;28;20395;-86
2020/12/07 03:43:54;;;;;;;;;;;1.80;99.90;;;;;;5038051;28;19916;-87
2020/12/07 03:46:19;;;;;;;;;;;1.80;99.90;;;;;;5034626;28;20359;-86
2020/12/07 03:48:45;;;;;;;;;;;1.90;99.90;;;;;;5032250;28;19924;-86
2020/12/07 03:51:10;;;;;;;;;;;1.90;99.90;;;;;;5032225;28;19909;-86
2020/12/07 03:53:37;;;;;;;;;;;1.80;99.90;;;;;;5033427;28;19916;-86
2020/12/07 03:56:03;;;;;;;;;;;1.80;99.90;;;;;;5031981;28;19936;-87
2020/12/07 03:58:29;;;;;;;;;;;1.90;99.90;;;;;;5032267;28;19956;-87
2020/12/07 04:00:55;;;;;;;;;;;1.90;99.90;;;;;;5032156;28;19932;-86
2020/12/07 04:03:21;;;;;;;;;;;1.90;99.90;;;;;;5031943;28;20012;-87
2020/12/07 04:05:51;;;;;;;;;;;1.90;99.90;;;;;;5031816;28;19952;-88
2020/12/07 04:08:16;;;;;;;;;;;1.90;99.90;;;;;;5031954;28;19916;-87
2020/12/07 04:10:42;;;;;;;;;;;1.90;99.90;;;;;;5032137;28;19909;-86
2020/12/07 04:13:07;;;;;;;;;;;1.90;99.90;;;;;;5039366;28;20434;-87
2020/12/07 04:15:33;;;;;;;;;;;1.90;99.90;;;;;;5043441;28;19916;-86
2020/12/07 04:17:59;;;;;;;;;;;1.90;99.90;;;;;;5051531;28;19909;-86
2020/12/07 04:20:24;;;;;;;;;;;1.90;99.90;;;;;;5051570;28;20307;-86
2020/12/07 04:22:50;;;;;;;;;;;2.00;99.90;;;;;;5051737;28;19912;-86
2020/12/07 04:25:15;;;;;;;;;;;1.90;99.90;;;;;;5051640;28;20374;-85
2020/12/07 04:27:41;;;;;;;;;;;2.00;99.90;;;;;;5050804;28;20279;-86
2020/12/07 04:30:06;;;;;;;;;;;2.00;99.90;;;;;;5051479;28;19909;-86
2020/12/07 04:32:32;;;;;;;;;;;2.00;99.90;;;;;;5051642;28;19931;-87
2020/12/07 04:34:57;;;;;;;;;;;2.00;99.90;;;;;;5051232;28;19916;-87
2020/12/07 04:37:23;;;;;;;;;;;2.00;99.90;;;;;;5051419;28;19916;-86
2020/12/07 04:39:48;;;;;;;;;;;2.00;99.90;;;;;;5051428;28;20398;-86
2020/12/07 04:42:14;;;;;;;;;;;2.10;99.90;;;;;;5052402;28;19917;-86
2020/12/07 04:44:40;;;;;;;;;;;2.10;99.90;;;;;;5035109;28;19912;-86
2020/12/07 04:47:06;;;;;;;;;;;2.10;99.90;;;;;;5051281;28;19909;-86
2020/12/07 04:49:31;;;;;;;;;;;2.10;99.90;;;;;;5051143;28;19908;-86
2020/12/07 04:51:57;;;;;;;;;;;2.20;99.90;;;;;;5051347;28;20276;-86
2020/12/07 04:54:24;;;;;;;;;;;2.20;99.90;;;;;;5051222;28;19913;-86
2020/12/07 04:56:50;;;;;;;;;;;2.20;99.90;;;;;;5051336;28;19919;-87
2020/12/07 04:59:16;;;;;;;;;;;2.20;99.90;;;;;;5051152;28;20360;-86
2020/12/07 05:01:42;;;;;;;;;;;2.20;99.90;;;;;;5051415;28;19909;-87
2020/12/07 05:04:07;;;;;;;;;;;2.20;99.90;;;;;;5050833;28;20447;-87
2020/12/07 05:06:33;;;;;;;;;;;2.20;99.90;;;;;;5050891;28;19928;-86
2020/12/07 05:08:58;;;;;;;;;;;2.20;99.90;;;;;;5051136;28;19908;-87
2020/12/07 05:11:25;;;;;;;;;;;2.30;99.90;;;;;;5051098;28;20011;-87
2020/12/07 05:16:45;;;;;;;;;;;2.30;99.90;;;;;;5023521;28;19976;-86
2020/12/07 05:19:11;;;;;;;;;;;2.30;99.90;;;;;;5031045;28;19909;-87
2020/12/07 05:21:39;;;;;;;;;;;2.30;99.90;;;;;;5031107;28;19916;-87
2020/12/07 05:24:05;;;;;;;;;;;2.30;99.90;;;;;;5031162;28;19909;-87
2020/12/07 05:26:33;;;;;;;;;;;2.30;99.90;;;;;;5030813;28;20004;-86
2020/12/07 05:29:04;;;;;;;;;;;2.30;99.90;;;;;;5031077;28;19958;-86
2020/12/07 05:31:32;;;;;;;;;;;2.30;99.90;;;;;;5031177;28;19913;-87
2020/12/07 05:33:57;;;;;;;;;;;2.30;99.90;;;;;;5031041;28;19916;-87
2020/12/07 05:36:23;;;;;;;;;;;2.30;99.90;;;;;;5030970;28;20307;-87
2020/12/07 05:38:48;;;;;;;;;;;2.30;99.90;;;;;;5032012;28;19909;-86
2020/12/07 05:41:15;;;;;;;;;;;2.30;99.90;;;;;;5036038;28;19924;-87
2020/12/07 05:43:41;;;;;;;;;;;2.30;99.90;;;;;;5034726;28;19913;-86
2020/12/07 05:46:06;;;;;;;;;;;2.30;99.90;;;;;;5034596;28;20272;-86
2020/12/07 05:48:33;;;;;;;;;;;2.20;99.90;;;;;;5034832;28;19991;-86
2020/12/07 05:51:04;;;;;;;;;;;2.20;99.90;;;;;;5034816;28;20475;-87
2020/12/07 05:53:33;;;;;;;;;;;2.20;99.90;;;;;;5034942;28;19913;-86
2020/12/07 05:55:59;;;;;;;;;;;2.20;99.90;;;;;;5034808;28;19920;-87
2020/12/07 05:58:28;;;;;;;;;;;2.10;99.90;;;;;;5034676;28;20372;-87
2020/12/07 06:00:55;;;;;;;;;;;2.00;99.90;;;;;;5035057;28;19909;-87
2020/12/07 06:03:21;;;;;;;;;;;2.00;99.90;;;;;;5035018;28;19909;-86
2020/12/07 06:05:46;;;;;;;;;;;2.00;99.90;;;;;;5035839;28;19948;-86
2020/12/07 06:08:18;;;;;;;;;;;2.00;99.90;;;;;;5034803;28;20417;-87
2020/12/07 06:10:46;;;;;;;;;;;2.00;99.90;;;;;;5034694;28;19913;-87
2020/12/07 06:13:18;;;;;;;;;;;2.00;99.90;;;;;;5043801;28;19948;-87
2020/12/07 06:15:44;;;;;;;;;;;2.00;99.90;;;;;;5047936;28;19923;-86
2020/12/07 06:18:21;;;;;;;;;;;1.90;99.90;;;;;;5054172;28;19958;-87
2020/12/07 06:20:46;;;;;;;;;;;1.90;99.90;;;;;;5055675;28;20425;-86
2020/12/07 06:23:16;;;;;;;;;;;1.90;99.90;;;;;;5054257;28;20003;-86
2020/12/07 06:25:42;;;;;;;;;;;1.90;99.90;;;;;;5054215;28;19954;-86
2020/12/07 06:28:08;;;;;;;;;;;1.90;99.90;;;;;;5053867;28;20283;-86
2020/12/07 06:30:37;;;;;;;;;;;1.80;99.90;;;;;;5053776;28;19909;-86
2020/12/07 06:33:04;;;;;;;;;;;1.70;99.90;;;;;;5053789;28;19909;-86
2020/12/07 06:35:29;;;;;;;;;;;1.70;99.90;;;;;;5053924;28;19928;-86
2020/12/07 06:37:55;;;;;;;;;;;1.70;99.90;;;;;;5053729;28;20385;-86
2020/12/07 06:40:26;;;;;;;;;;;1.60;99.90;;;;;;5053824;28;19909;-86
2020/12/07 06:42:51;;;;;;;;;;;1.60;99.90;;;;;;5053498;28;20295;-87
2020/12/07 06:45:29;;;;;;;;;;;1.60;99.90;;;;;;5042832;28;19916;-86
2020/12/07 06:47:54;;;;;;;;;;;1.60;99.90;;;;;;5053507;28;20019;-86
2020/12/07 06:50:23;;;;;;;;;;;1.60;99.90;;;;;;5052871;28;19932;-86
2020/12/07 06:52:49;;;;;;;;;;;1.60;99.90;;;;;;5053291;28;19909;-86
2020/12/07 06:55:17;;;;;;;;;;;1.60;99.90;;;;;;5054454;28;20060;-86
2020/12/07 06:57:44;;;;;;;;;;;1.70;99.90;;;;;;5045525;28;19921;-86
2020/12/07 07:00:13;;;;;;;;;;;1.70;99.90;;;;;;5033732;28;19913;-86
2020/12/07 07:02:39;;;;;;;;;;;1.70;99.90;;;;;;5033278;28;19909;-86
2020/12/07 07:05:05;;;;;;;;;;;1.60;99.90;;;;;;5033367;28;19949;-86
2020/12/07 07:07:31;;;;;;;;;;;1.70;99.90;;;;;;5032948;28;19959;-86
2020/12/07 07:09:58;;;;;;;;;;;1.70;99.90;;;;;;5033365;28;19909;-85
2020/12/07 07:12:23;;;;;;;;;;;1.70;99.90;;;;;;5034476;28;19913;-86
2020/12/07 07:14:53;;;;;;;;;;;1.70;99.90;;;;;;5054400;28;20425;-86
2020/12/07 07:17:18;;;;;;;;;;;1.70;99.90;;;;;;5054015;28;19999;-86
2020/12/07 07:19:44;;;;;;;;;;;1.80;99.90;;;;;;5052787;28;19960;-86
2020/12/07 07:22:10;;;;;;;;;;;1.80;99.90;;;;;;5052768;28;19966;-86
2020/12/07 07:30:04;;;;;;;;;;;1.90;99.90;;;;;;5054164;28;19916;-87
2020/12/07 07:32:31;;;;;;;;;;;2.00;99.90;;;;;;5052412;28;19919;-86
2020/12/07 07:34:56;;;;;;;;;;;2.00;99.90;;;;;;5052521;28;19913;-87
2020/12/07 07:37:22;;;;;;;;;;;2.00;99.90;;;;;;5052305;28;20291;-85
2020/12/07 07:39:47;;;;;;;;;;;2.00;99.90;;;;;;5052418;28;19909;-86
2020/12/07 07:42:14;;;;;;;;;;;2.00;99.90;;;;;;5053678;28;19935;-86
2020/12/07 07:44:41;;;;;;;;;;;2.00;99.90;;;;;;5044218;28;19912;-86
2020/12/07 07:47:11;;;;;;;;;;;1.90;99.90;;;;;;5052582;28;20414;-86
2020/12/07 07:49:59;;;;;;;;;;;1.90;99.90;;;;;;5052335;28;20094;-85
2020/12/07 08:16:36;;;;;;;;;;;1.70;99.90;;;;;;5053487;28;20327;-87
2020/12/07 08:19:02;;;;;;;;;;;1.70;99.90;;;;;;5053613;28;19909;-86
2020/12/07 08:21:32;;;;;;;;;;;1.70;99.90;;;;;;5052315;28;20275;-87
2020/12/07 08:23:59;;;;;;;;;;;1.70;99.90;;;;;;5052569;28;19920;-88
2020/12/07 08:26:24;;;;;;;;;;;1.80;99.90;;;;;;5051542;28;20288;-88
2020/12/07 08:28:53;;;;;;;;;;;2.00;99.90;;;;;;5053220;28;19913;-90
2020/12/07 08:31:20;;;;;;;;;;;2.40;99.90;;;;;;5051938;28;19909;-90
2020/12/07 08:33:52;;;;;;;;;;;2.80;99.90;;;;;;5031776;28;19909;-90
2020/12/07 08:36:17;;;;;;;;;;;3.20;99.90;;;;;;5031690;28;19913;-89
2020/12/07 08:38:44;;;;;;;;;;;3.80;99.90;;;;;;5033022;28;19963;-88
2020/12/07 08:41:14;;;;;;;;;;;4.40;99.90;;;;;;5031570;28;19913;-88
2020/12/07 08:43:40;;;;;;;;;;;4.90;99.90;;;;;;5039747;28;19928;-88
2020/12/07 08:46:06;;;;;;;;;;;5.60;99.90;;;;;;5046684;28;19916;-88
2020/12/07 08:48:32;;;;;;;;;;;6.10;99.90;;;;;;5051481;28;19909;-88
2020/12/07 08:50:57;;;;;;;;;;;6.60;99.90;;;;;;5051270;28;19962;-88
2020/12/07 08:53:23;;;;;;;;;;;6.80;99.90;;;;;;5051482;28;20402;-88
2020/12/07 08:55:49;;;;;;;;;;;6.70;99.90;;;;;;5051269;28;19913;-88
2020/12/07 08:58:14;;;;;;;;;;;6.70;99.90;;;;;;5051439;28;19909;-88
2020/12/07 09:00:40;;;;;;;;;;;6.80;99.90;;;;;;5051444;28;20371;-88
2020/12/07 09:03:05;;;;;;;;;;;7.00;99.90;;;;;;5050787;28;20352;-89
2020/12/07 09:05:31;;;;;;;;;;;7.10;99.90;;;;;;5051478;28;20006;-88
2020/12/07 09:07:56;;;;;;;;;;;7.40;99.90;;;;;;5051204;28;19909;-89
2020/12/07 09:10:22;;;;;;;;;;;7.80;99.90;;;;;;5051701;28;19962;-88
2020/12/07 09:12:47;;;;;;;;;;;8.20;99.90;;;;;;5050187;28;19909;-88
2020/12/07 09:15:12;;;;;;;;;;;8.50;99.90;;;;;;5046579;28;19921;-89
2020/12/07 09:17:38;;;;;;;;;;;8.80;99.90;;;;;;5051119;28;19947;-89
2020/12/07 09:20:04;;;;;;;;;;;9.20;99.90;;;;;;5044722;28;19909;-89
2020/12/07 09:22:29;;;;;;;;;;;9.40;99.90;;;;;;5035420;28;19917;-89
2020/12/07 09:24:54;;;;;;;;;;;9.60;99.90;;;;;;5035556;28;19909;-90
2020/12/07 09:27:20;;;;;;;;;;;9.90;99.90;;;;;;5035484;28;19909;-90
2020/12/07 09:29:46;;;;;;;;;;;10.30;99.90;;;;;;5036228;28;20264;-90
2020/12/07 09:32:11;;;;;;;;;;;10.40;99.90;;;;;;5053258;28;19947;-90
2020/12/07 09:34:37;;;;;;;;;;;10.10;99.90;;;;;;5054918;28;19913;-89
2020/12/07 09:37:03;;;;;;;;;;;10.00;99.90;;;;;;5056385;28;19908;-88
2020/12/07 09:39:28;;;;;;;;;;;9.70;99.90;;;;;;5055193;28;20268;-89
2020/12/07 09:41:55;;;;;;;;;;;9.40;99.90;;;;;;5054547;28;19960;-89
2020/12/07 09:44:21;;;;;;;;;;;9.30;99.90;;;;;;5044271;28;19909;-89
2020/12/07 09:46:46;;;;;;;;;;;9.20;99.90;;;;;;5033717;28;19909;-88
2020/12/07 09:49:12;;;;;;;;;;;9.00;99.90;;;;;;5034015;28;19909;-89
2020/12/07 09:51:37;;;;;;;;;;;8.80;99.90;;;;;;5035230;28;20009;-91
2020/12/07 09:54:03;;;;;;;;;;;8.70;99.90;;;;;;5034198;28;20372;-89
2020/12/07 09:56:34;;;;;;;;;;;8.60;99.90;;;;;;5042838;28;19963;-89
2020/12/07 09:58:59;;;;;;;;;;;8.50;99.90;;;;;;5053805;28;19963;-90
2020/12/07 10:01:25;;;;;;;;;;;8.30;99.90;;;;;;5054027;28;19916;-88
2020/12/07 10:03:50;;;;;;;;;;;8.20;99.90;;;;;;5049945;28;19917;-88
2020/12/07 10:06:16;;;;;;;;;;;8.10;99.90;;;;;;5042838;28;19909;-88
2020/12/07 10:08:41;;;;;;;;;;;7.90;99.90;;;;;;5050994;28;20367;-88
2020/12/07 10:11:06;;;;;;;;;;;7.70;99.90;;;;;;5047248;28;19913;-87
2020/12/07 10:13:32;;;;;;;;;;;7.40;99.90;;;;;;5041659;28;20279;-88
2020/12/07 10:15:58;;;;;;;;;;;7.20;99.90;;;;;;5035456;28;19920;-88
2020/12/07 10:18:23;;;;;;;;;;;7.10;99.90;;;;;;5049474;28;20368;-89
2020/12/07 10:20:49;;;;;;;;;;;7.10;99.90;;;;;;5049816;28;19916;-87
2020/12/07 10:23:14;;;;;;;;;;;7.20;99.90;;;;;;5036688;28;19913;-89
2020/12/07 10:25:40;;;;;;;;;;;7.20;99.90;;;;;;5036051;28;19999;-89
2020/12/07 10:28:05;;;;;;;;;;;7.00;99.90;;;;;;5035127;28;19909;-88
2020/12/07 10:30:30;;;;;;;;;;;6.80;99.90;;;;;;5045193;28;19951;-88
2020/12/07 10:32:56;;;;;;;;;;;6.60;99.90;;;;;;5036752;28;19913;-89
2020/12/07 10:35:21;;;;;;;;;;;6.40;99.90;;;;;;5042481;28;20000;-88
2020/12/07 10:37:47;;;;;;;;;;;6.10;99.90;;;;;;5041190;28;20417;-88
2020/12/07 10:40:14;;;;;;;;;;;6.00;99.90;;;;;;5039869;28;19913;-88
2020/12/07 10:42:39;;;;;;;;;;;5.80;99.90;;;;;;5038437;28;19921;-88
2020/12/07 10:45:04;;;;;;;;;;;5.70;99.90;;;;;;5038300;28;19915;-88
2020/12/07 10:47:30;;;;;;;;;;;5.50;99.90;;;;;;5041974;28;19909;-88
2020/12/07 10:49:56;;;;;;;;;;;5.40;99.90;;;;;;5044885;28;19935;-88
2020/12/07 10:52:21;;;;;;;;;;;5.20;99.90;;;;;;5035614;28;20486;-85
2020/12/07 10:54:47;;;;;;;;;;;5.10;99.90;;;;;;5033561;28;20391;-88
2020/12/07 10:57:13;;;;;;;;;;;5.00;99.90;;;;;;5037691;28;19909;-88
2020/12/07 10:59:38;;;;;;;;;;;4.90;99.90;;;;;;5051719;28;19916;-88
2020/12/07 11:02:04;;;;;;;;;;;4.90;99.90;;;;;;5046626;28;19916;-88
2020/12/07 11:04:29;;;;;;;;;;;4.80;99.90;;;;;;5036514;28;19943;-88
2020/12/07 11:06:57;;;;;;;;;;;4.90;99.90;;;;;;5042151;28;19909;-88
2020/12/07 11:09:23;;;;;;;;;;;4.90;99.90;;;;;;5039171;28;19909;-89
2020/12/07 11:11:50;;;;;;;;;;;5.00;99.90;;;;;;5039372;28;19915;-88
2020/12/07 11:14:15;;;;;;;;;;;4.90;99.90;;;;;;5051540;28;19912;-88
2020/12/07 11:16:41;;;;;;;;;;;4.90;99.90;;;;;;5041670;28;19959;-88
2020/12/07 11:19:06;;;;;;;;;;;4.90;99.90;;;;;;5040093;28;19962;-88
2020/12/07 11:21:31;;;;;;;;;;;4.90;99.90;;;;;;5043605;28;19909;-88
2020/12/07 11:23:57;;;;;;;;;;;4.80;99.90;;;;;;5051977;28;20276;-88
2020/12/07 11:26:22;;;;;;;;;;;4.80;99.90;;;;;;5048305;28;19924;-88
2020/12/07 11:28:48;;;;;;;;;;;4.70;99.90;;;;;;5039146;28;20362;-87
2020/12/07 11:31:15;;;;;;;;;;;4.70;99.90;;;;;;5040606;28;20004;-88
2020/12/07 11:33:40;;;;;;;;;;;4.70;99.90;;;;;;5046353;28;19970;-88
2020/12/07 11:36:06;;;;;;;;;;;4.70;99.90;;;;;;5036715;28;19917;-86
2020/12/07 11:41:47;;;;;;;;;;;4.80;99.90;;;;;;5012359;28;19935;-89
2020/12/07 11:44:14;;;;;;;;;;;4.80;99.90;;;;;;5041279;28;19963;-88
2020/12/07 11:49:24;;;;;;;;;;;4.70;99.90;;;;;;5042455;28;20310;-89
2020/12/07 11:51:49;;;;;;;;;;;4.60;99.90;;;;;;5049032;28;19913;-88
2020/12/07 11:54:15;;;;;;;;;;;4.70;99.90;;;;;;5049249;28;19909;-88
2020/12/07 11:56:41;;;;;;;;;;;4.60;99.90;;;;;;5039044;28;20002;-88
2020/12/07 11:59:07;;;;;;;;;;;4.50;99.90;;;;;;5033749;28;19910;-88
2020/12/07 12:01:33;;;;;;;;;;;4.50;99.90;;;;;;5041729;28;19932;-89
2020/12/07 12:03:59;;;;;;;;;;;4.50;99.90;;;;;;5043304;28;19909;-89
2020/12/07 12:06:24;;;;;;;;;;;4.40;99.90;;;;;;5036905;28;20412;-89
2020/12/07 12:08:51;;;;;;;;;;;4.40;99.90;;;;;;5045184;28;19995;-88
2020/12/07 12:11:16;;;;;;;;;;;4.30;99.90;;;;;;5033313;28;19988;-87
2020/12/07 12:13:42;;;;;;;;;;;4.30;99.90;;;;;;5046253;28;19985;-89
2020/12/07 12:16:07;;;;;;;;;;;4.30;99.90;;;;;;5038956;28;19913;-88
2020/12/07 12:18:33;;;;;;;;;;;4.30;99.90;;;;;;5038372;28;20344;-89
2020/12/07 12:20:59;;;;;;;;;;;4.30;99.90;;;;;;5049191;28;19909;-88
2020/12/07 12:23:24;;;;;;;;;;;4.30;99.90;;;;;;5044161;28;20249;-88
2020/12/07 12:25:49;;;;;;;;;;;4.30;99.90;;;;;;5038306;28;19936;-88
2020/12/07 12:28:15;;;;;;;;;;;4.30;99.90;;;;;;5032255;28;19910;-89
2020/12/07 12:30:42;;;;;;;;;;;4.30;99.90;;;;;;5031729;28;19909;-89
2020/12/07 12:33:08;;;;;;;;;;;4.20;99.90;;;;;;5031695;28;19916;-87
2020/12/07 12:35:33;;;;;;;;;;;4.20;99.90;;;;;;5031533;28;19913;-90
2020/12/07 12:37:58;;;;;;;;;;;4.30;99.90;;;;;;5031334;28;19954;-87
2020/12/07 12:40:24;;;;;;;;;;;4.20;99.90;;;;;;5031693;28;19909;-88
2020/12/07 12:42:51;;;;;;;;;;;4.20;99.90;;;;;;5036335;28;19921;-87
2020/12/07 12:45:17;;;;;;;;;;;4.10;99.90;;;;;;5044440;28;20051;-89
2020/12/07 12:47:42;;;;;;;;;;;4.00;99.90;;;;;;5051254;28;20356;-88
2020/12/07 12:50:07;;;;;;;;;;;3.90;99.90;;;;;;5049964;28;19909;-89
2020/12/07 12:52:33;;;;;;;;;;;3.90;99.90;;;;;;5044345;28;19917;-89
2020/12/07 12:54:58;;;;;;;;;;;3.90;99.90;;;;;;5032222;28;19913;-89
2020/12/07 12:57:26;;;;;;;;;;;3.80;99.90;;;;;;5039915;28;20375;-88
2020/12/07 12:59:52;;;;;;;;;;;3.80;99.90;;;;;;5034525;28;19909;-88
2020/12/07 13:02:17;;;;;;;;;;;3.80;99.90;;;;;;5041601;28;21475;-87
2020/12/07 13:04:43;;;;;;;;;;;3.80;99.90;;;;;;5044847;28;20007;-88
2020/12/07 13:07:08;;;;;;;;;;;3.80;99.90;;;;;;5045910;28;20367;-87
2020/12/07 13:09:34;;;;;;;;;;;3.80;99.90;;;;;;5042443;28;19915;-87
2020/12/07 13:12:00;;;;;;;;;;;3.80;99.90;;;;;;5042802;28;19913;-87
2020/12/07 13:14:26;;;;;;;;;;;3.90;99.90;;;;;;5046808;28;20004;-88
2020/12/07 13:17:05;;;;;;;;;;;3.90;99.90;;;;;;5035128;28;20019;-87
2020/12/07 13:19:31;;;;;;;;;;;3.90;99.90;;;;;;5034169;28;19959;-88
2020/12/07 13:29:41;;;;;;;;;;;3.90;99.90;;;;;;5040636;28;19916;-87
2020/12/07 13:32:06;;;;;;;;;;;3.90;99.90;;;;;;5043471;28;19909;-87
2020/12/07 13:34:32;;;;;;;;;;;3.80;99.90;;;;;;5046409;28;19931;-89
2020/12/07 13:36:57;;;;;;;;;;;3.80;99.90;;;;;;5044073;28;20279;-88
2020/12/07 13:39:23;;;;;;;;;;;3.80;99.90;;;;;;5041059;28;19909;-88
2020/12/07 13:41:48;;;;;;;;;;;3.70;99.90;;;;;;5036594;28;20360;-87
2020/12/07 13:44:14;;;;;;;;;;;3.70;99.90;;;;;;5040354;28;19916;-87
2020/12/07 13:46:40;;;;;;;;;;;3.70;99.90;;;;;;5039399;28;19967;-87
2020/12/07 13:49:05;;;;;;;;;;;3.70;99.90;;;;;;5042899;28;19998;-86
2020/12/07 13:51:31;;;;;;;;;;;3.70;99.90;;;;;;5046429;28;19909;-88
2020/12/07 13:53:56;;;;;;;;;;;3.70;99.90;;;;;;5042769;28;19909;-88
2020/12/07 13:56:22;;;;;;;;;;;3.70;99.90;;;;;;5036417;28;19912;-87
2020/12/07 13:58:50;;;;;;;;;;;3.70;99.90;;;;;;5038560;28;19940;-88
2020/12/07 14:01:16;;;;;;;;;;;3.80;99.90;;;;;;5047617;28;19955;-88
2020/12/07 14:03:53;;;;;;;;;;;3.80;99.90;;;;;;5037424;28;20467;-89
2020/12/07 14:06:28;;;;;;;;;;;3.70;99.90;;;;;;5040964;28;20424;-89
2020/12/07 14:08:58;;;;;;;;;;;3.80;99.90;;;;;;5038915;28;19909;-88
2020/12/07 14:11:26;;;;;;;;;;;3.70;99.90;;;;;;5050687;28;19913;-87
2020/12/07 14:13:52;;;;;;;;;;;3.70;99.90;;;;;;5041806;28;19913;-88
2020/12/07 14:16:18;;;;;;;;;;;3.70;99.90;;;;;;5050580;28;20282;-87
2020/12/07 14:19:19;;;;;;;;;;;3.70;99.90;;;;;;5036596;28;19959;-88
2020/12/07 14:27:32;;;;;;;;;;;3.60;99.90;;;;;;5039834;28;20322;-88
2020/12/07 14:41:21;;;;;;;;;;;3.70;99.90;;;;;;5054205;28;19962;-89
2020/12/07 14:44:01;;;;;;;;;;;3.60;99.90;;;;;;5042673;28;19924;-87
2020/12/07 14:46:30;;;;;;;;;;;3.50;99.90;;;;;;5050762;28;19909;-88
2020/12/07 14:49:20;;;;;;;;;;;3.50;99.90;;;;;;5043759;28;19909;-88
2020/12/07 14:51:50;;;;;;;;;;;3.50;99.90;;;;;;5035338;28;19916;-88
2020/12/07 14:54:29;;;;;;;;;;;3.50;99.90;;;;;;5045017;28;20391;-88
2020/12/07 15:15:29;;;;;;;;;;;3.20;99.90;;;;;;5036953;28;19971;-88
2020/12/07 15:17:55;;;;;;;;;;;3.20;99.90;;;;;;5053879;28;19912;-88
2020/12/07 15:20:20;;;;;;;;;;;3.20;99.90;;;;;;5037459;28;19910;-87
2020/12/07 15:22:46;;;;;;;;;;;3.10;99.90;;;;;;5034401;28;19916;-88
2020/12/07 15:25:11;;;;;;;;;;;3.10;99.90;;;;;;5034613;28;20275;-87
2020/12/07 15:27:37;;;;;;;;;;;3.00;99.90;;;;;;5036123;28;19909;-87
2020/12/07 15:30:02;;;;;;;;;;;3.00;99.90;;;;;;5041480;28;19910;-87
2020/12/07 15:32:27;;;;;;;;;;;2.90;99.90;;;;;;5032928;28;19916;-87
2020/12/07 15:34:53;;;;;;;;;;;2.90;99.90;;;;;;5047647;28;20264;-87
2020/12/07 15:37:18;;;;;;;;;;;2.90;99.90;;;;;;5051925;28;20007;-87
2020/12/07 15:39:44;;;;;;;;;;;2.90;99.90;;;;;;5039654;28;19974;-87
2020/12/07 15:42:10;;;;;;;;;;;2.90;99.90;;;;;;5032751;28;19913;-87
2020/12/07 15:44:39;;;;;;;;;;;2.90;99.90;;;;;;5042130;28;19917;-87
2020/12/07 15:47:05;;;;;;;;;;;3.00;99.90;;;;;;5033675;28;19916;-88